createdAt,value
2023-04-16T00:01:43.177Z,9.41
2023-04-16T00:04:48.771Z,9.26
2023-04-16T00:07:52.962Z,9.21
2023-04-16T00:10:56.884Z,9.00
2023-04-16T00:14:00.620Z,9.03
2023-04-16T00:17:04.480Z,9.12
2023-04-16T00:20:10.620Z,9.20
2023-04-16T00:23:14.373Z,8.75
2023-04-16T00:26:17.802Z,8.50
2023-04-16T00:29:23.137Z,8.66
2023-04-16T00:32:26.762Z,8.64
2023-04-16T00:35:32.064Z,8.77
2023-04-16T00:38:36.068Z,8.80
2023-04-16T00:41:39.852Z,8.63
2023-04-16T00:45:57.783Z,8.79
2023-04-16T00:49:02.136Z,8.69
2023-04-16T00:52:07.986Z,8.59
2023-04-16T00:55:13.525Z,8.42
2023-04-16T00:58:17.611Z,7.86
2023-04-16T01:01:21.361Z,8.10
2023-04-16T01:04:25.246Z,8.09
2023-04-16T01:07:32.822Z,8.21
2023-04-16T01:10:36.257Z,7.89
2023-04-16T01:13:40.319Z,8.15
2023-04-16T01:16:43.931Z,8.40
2023-04-16T01:19:50.768Z,8.39
2023-04-16T01:22:55.978Z,8.59
2023-04-16T01:25:59.619Z,8.24
2023-04-16T01:29:04.144Z,8.47
2023-04-16T01:32:08.295Z,8.24
2023-04-16T01:35:13.751Z,8.35
2023-04-16T01:38:18.979Z,8.30
2023-04-16T01:41:22.642Z,8.42
2023-04-16T01:44:26.487Z,8.22
2023-04-16T01:47:29.993Z,8.30
2023-04-16T01:50:34.555Z,8.34
2023-04-16T01:53:39.439Z,8.33
2023-04-16T01:56:43.225Z,8.10
2023-04-16T01:59:46.745Z,8.13
2023-04-16T02:02:50.617Z,7.95
2023-04-16T02:06:02.670Z,8.09
2023-04-16T02:09:08.281Z,7.87
2023-04-16T02:12:13.956Z,8.18
2023-04-16T02:15:17.970Z,7.95
2023-04-16T02:18:22.404Z,8.35
2023-04-16T02:21:27.587Z,8.36
2023-04-16T02:24:32.474Z,8.07
2023-04-16T02:27:40.797Z,7.99
2023-04-16T02:31:00.524Z,8.32
2023-04-16T02:34:10.203Z,8.12
2023-04-16T02:37:15.387Z,8.33
2023-04-16T02:40:20.774Z,8.54
2023-04-16T02:43:25.685Z,8.50
2023-04-16T02:46:29.545Z,8.56
2023-04-16T02:49:32.944Z,8.49
2023-04-16T02:52:36.644Z,8.23
2023-04-16T02:55:41.460Z,8.24
2023-04-16T02:58:45.279Z,8.30
2023-04-16T03:01:49.000Z,8.19
2023-04-16T03:04:52.992Z,8.36
2023-04-16T03:07:57.341Z,8.32
2023-04-16T03:11:03.547Z,8.40
2023-04-16T03:14:06.949Z,8.49
2023-04-16T03:17:10.843Z,8.43
2023-04-16T03:20:17.024Z,8.23
2023-04-16T03:23:20.975Z,8.25
2023-04-16T03:26:25.889Z,8.20
2023-04-16T03:29:29.758Z,8.30
2023-04-16T03:32:34.396Z,8.22
2023-04-16T03:35:39.235Z,8.33
2023-04-16T03:38:42.666Z,8.22
2023-04-16T03:41:47.910Z,8.40
2023-04-16T03:44:54.061Z,8.48
2023-04-16T03:47:59.677Z,8.35
2023-04-16T03:51:03.353Z,8.00
2023-04-16T03:54:07.288Z,8.23
2023-04-16T03:57:13.573Z,8.27
2023-04-16T04:00:17.564Z,8.17
2023-04-16T04:03:34.825Z,8.24
2023-04-16T04:06:39.371Z,8.17
2023-04-16T04:09:43.021Z,8.40
2023-04-16T04:12:48.389Z,8.49
2023-04-16T04:15:52.143Z,8.32
2023-04-16T04:18:56.882Z,8.35
2023-04-16T04:22:00.489Z,8.20
2023-04-16T04:25:04.273Z,8.23
2023-04-16T04:28:10.764Z,8.44
2023-04-16T04:31:15.586Z,8.41
2023-04-16T04:34:19.893Z,8.52
2023-04-16T04:37:24.556Z,8.48
2023-04-16T04:40:28.562Z,8.68
2023-04-16T04:43:33.827Z,8.86
2023-04-16T04:46:37.582Z,8.81
2023-04-16T04:49:41.558Z,8.88
2023-04-16T04:52:46.181Z,8.53
2023-04-16T04:55:53.171Z,8.67
2023-04-16T04:59:00.718Z,8.89
2023-04-16T05:02:04.755Z,8.91
2023-04-16T05:05:08.744Z,9.06
2023-04-16T05:08:12.567Z,9.12
2023-04-16T05:11:16.012Z,9.41
2023-04-16T05:14:21.102Z,9.73
2023-04-16T05:17:24.558Z,9.77
2023-04-16T05:20:28.433Z,9.87
2023-04-16T05:23:32.100Z,9.95
2023-04-16T05:26:35.908Z,10.05
2023-04-16T05:29:40.881Z,10.05
2023-04-16T05:32:44.709Z,10.18
2023-04-16T05:35:48.265Z,10.26
2023-04-16T05:38:51.995Z,10.30
2023-04-16T05:41:55.581Z,10.50
2023-04-16T05:45:00.761Z,10.63
2023-04-16T05:48:04.436Z,10.61
2023-04-16T05:51:08.177Z,10.62
2023-04-16T05:54:11.585Z,10.56
2023-04-16T05:57:15.488Z,10.29
2023-04-16T06:00:20.576Z,10.12
2023-04-16T06:03:24.507Z,10.37
2023-04-16T06:06:28.172Z,10.61
2023-04-16T06:09:32.070Z,10.49
2023-04-16T06:12:35.641Z,10.53
2023-04-16T06:15:41.068Z,10.45
2023-04-16T06:18:45.468Z,10.39
2023-04-16T06:21:49.540Z,10.11
2023-04-16T06:24:53.789Z,10.38
2023-04-16T06:27:58.057Z,10.60
2023-04-16T06:31:03.261Z,10.91
2023-04-16T06:34:07.276Z,10.90
2023-04-16T06:37:10.851Z,11.12
2023-04-16T06:40:14.591Z,10.75
2023-04-16T06:43:18.179Z,11.05
2023-04-16T06:46:23.708Z,11.03
2023-04-16T06:49:27.372Z,11.31
2023-04-16T06:52:31.286Z,11.36
2023-04-16T06:55:34.783Z,11.18
2023-04-16T06:58:38.892Z,11.15
2023-04-16T07:01:43.893Z,11.19
2023-04-16T07:04:47.789Z,11.43
2023-04-16T07:07:51.217Z,11.66
2023-04-16T07:10:55.434Z,11.92
2023-04-16T07:13:59.067Z,11.94
2023-04-16T07:17:04.210Z,12.14
2023-04-16T07:20:10.444Z,12.37
2023-04-16T07:23:14.378Z,12.48
2023-04-16T07:26:17.981Z,12.63
2023-04-16T07:29:21.932Z,12.66
2023-04-16T07:32:27.039Z,12.50
2023-04-16T07:35:31.109Z,12.91
2023-04-16T07:38:38.855Z,13.31
2023-04-16T07:41:46.633Z,13.42
2023-04-16T07:44:50.218Z,13.93
2023-04-16T07:47:55.460Z,14.75
2023-04-16T07:50:59.296Z,15.58
2023-04-16T07:54:03.064Z,16.43
2023-04-16T07:57:06.460Z,18.03
2023-04-16T08:00:11.633Z,19.03
2023-04-16T08:03:19.815Z,19.63
2023-04-16T08:06:24.047Z,19.99
2023-04-16T08:09:28.991Z,18.34
2023-04-16T08:12:32.930Z,17.91
2023-04-16T08:15:36.742Z,17.65
2023-04-16T08:18:42.440Z,17.29
2023-04-16T08:21:47.013Z,17.07
2023-04-16T08:24:50.919Z,17.06
2023-04-16T08:27:55.077Z,16.95
2023-04-16T08:30:59.254Z,16.82
2023-04-16T08:34:11.760Z,16.82
2023-04-16T08:37:15.842Z,16.72
2023-04-16T08:40:21.965Z,16.74
2023-04-16T08:43:27.168Z,16.43
2023-04-16T08:46:32.747Z,16.32
2023-04-16T08:49:43.907Z,16.19
2023-04-16T08:52:52.382Z,15.79
2023-04-16T08:56:00.974Z,15.99
2023-04-16T08:59:05.728Z,15.72
2023-04-16T09:02:13.758Z,15.90
2023-04-16T09:05:21.478Z,16.00
2023-04-16T09:08:26.737Z,16.20
2023-04-16T09:11:30.620Z,16.22
2023-04-16T09:14:34.484Z,16.20
2023-04-16T09:17:38.314Z,16.41
2023-04-16T09:21:11.307Z,16.71
2023-04-16T09:24:15.617Z,16.89
2023-04-16T09:27:19.099Z,16.94
2023-04-16T09:30:24.894Z,17.25
2023-04-16T09:33:28.284Z,17.12
2023-04-16T09:36:40.064Z,17.30
2023-04-16T09:39:43.948Z,17.25
2023-04-16T09:42:47.688Z,17.33
2023-04-16T09:45:54.244Z,17.52
2023-04-16T09:49:50.532Z,17.30
2023-04-16T09:52:57.091Z,17.41
2023-04-16T09:56:02.055Z,17.46
2023-04-16T09:59:06.722Z,17.53
2023-04-16T10:02:14.343Z,17.73
2023-04-16T10:05:52.007Z,17.77
2023-04-16T10:08:57.568Z,17.76
2023-04-16T10:12:01.734Z,17.72
2023-04-16T10:15:05.999Z,17.56
2023-04-16T10:18:10.080Z,17.48
2023-04-16T10:21:15.458Z,17.43
2023-04-16T10:24:21.037Z,17.66
2023-04-16T10:27:25.458Z,17.74
2023-04-16T10:30:29.294Z,17.58
2023-04-16T10:33:35.758Z,17.22
2023-04-16T10:36:40.261Z,17.28
2023-04-16T10:39:45.948Z,17.50
2023-04-16T10:42:59.639Z,17.42
2023-04-16T10:46:21.771Z,17.65
2023-04-16T10:49:27.551Z,17.65
2023-04-16T10:52:31.270Z,17.86
2023-04-16T10:56:12.094Z,18.08
2023-04-16T10:59:20.112Z,17.99
2023-04-16T11:02:30.273Z,18.22
2023-04-16T11:05:46.975Z,18.49
2023-04-16T11:08:55.060Z,18.71
2023-04-16T11:12:01.562Z,18.80
2023-04-16T11:15:07.191Z,18.92
2023-04-16T11:18:10.949Z,18.56
2023-04-16T11:21:15.016Z,18.56
2023-04-16T11:24:18.498Z,18.35
2023-04-16T11:27:26.520Z,18.24
2023-04-16T11:30:55.804Z,18.30
2023-04-16T11:34:03.841Z,18.28
2023-04-16T11:37:07.367Z,18.18
2023-04-16T11:40:11.871Z,17.84
2023-04-16T11:43:18.881Z,17.45
2023-04-16T11:46:27.695Z,17.52
2023-04-16T11:49:31.836Z,17.60
2023-04-16T11:52:36.450Z,17.63
2023-04-16T11:55:44.567Z,17.70
2023-04-16T11:59:07.847Z,17.49
2023-04-16T12:02:12.163Z,17.30
2023-04-16T12:05:31.939Z,17.18
2023-04-16T12:08:35.455Z,16.94
2023-04-16T12:11:40.281Z,17.14
2023-04-16T12:14:52.692Z,17.15
2023-04-16T12:18:08.288Z,17.10
2023-04-16T12:21:11.760Z,17.28
2023-04-16T12:24:20.795Z,17.36
2023-04-16T12:27:28.545Z,17.21
2023-04-16T12:30:33.740Z,17.36
2023-04-16T12:33:37.193Z,17.51
2023-04-16T12:36:40.991Z,17.39
2023-04-16T12:39:45.129Z,17.37
2023-04-16T12:42:50.131Z,17.39
2023-04-16T12:45:55.075Z,17.41
2023-04-16T12:48:58.767Z,17.29
2023-04-16T12:52:03.544Z,17.38
2023-04-16T12:55:08.514Z,17.32
2023-04-16T12:58:13.334Z,17.43
2023-04-16T13:01:19.419Z,17.36
2023-04-16T13:04:25.645Z,17.16
2023-04-16T13:07:32.543Z,17.23
2023-04-16T13:10:37.359Z,17.24
2023-04-16T13:13:41.442Z,17.26
2023-04-16T13:16:48.869Z,17.23
2023-04-16T13:19:52.644Z,17.15
2023-04-16T13:22:57.100Z,17.31
2023-04-16T13:26:02.242Z,17.32
2023-04-16T13:29:05.682Z,17.25
2023-04-16T13:32:15.150Z,16.84
2023-04-16T13:35:18.837Z,16.54
2023-04-16T13:38:22.606Z,16.79
2023-04-16T13:41:27.467Z,16.76
2023-04-16T13:44:31.229Z,16.47
2023-04-16T13:47:36.529Z,16.43
2023-04-16T13:50:40.385Z,16.49
2023-04-16T13:53:43.836Z,16.08
2023-04-16T13:56:47.762Z,15.98
2023-04-16T13:59:51.610Z,15.84
2023-04-16T14:02:58.249Z,15.90
2023-04-16T14:06:01.901Z,16.20
2023-04-16T14:09:05.841Z,16.31
2023-04-16T14:12:09.356Z,16.29
2023-04-16T14:15:14.763Z,16.40
2023-04-16T14:18:19.687Z,16.20
2023-04-16T14:21:23.375Z,15.83
2023-04-16T14:24:27.104Z,15.40
2023-04-16T14:27:31.607Z,15.40
2023-04-16T14:30:35.093Z,15.49
2023-04-16T14:33:40.454Z,15.53
2023-04-16T14:36:44.176Z,15.59
2023-04-16T14:39:47.961Z,15.36
2023-04-16T14:42:51.588Z,15.56
2023-04-16T14:45:55.406Z,15.54
2023-04-16T14:49:01.310Z,15.55
2023-04-16T14:52:05.884Z,15.52
2023-04-16T14:55:09.691Z,15.64
2023-04-16T14:58:15.862Z,15.72
2023-04-16T15:01:20.681Z,15.33
2023-04-16T15:04:26.539Z,15.22
2023-04-16T15:07:30.380Z,15.33
2023-04-16T15:10:36.214Z,15.40
2023-04-16T15:13:40.790Z,15.43
2023-04-16T15:16:44.796Z,15.64
2023-04-16T15:19:51.084Z,15.74
2023-04-16T15:22:54.777Z,15.59
2023-04-16T15:25:59.936Z,15.69
2023-04-16T15:29:03.640Z,15.79
2023-04-16T15:32:07.733Z,15.44
2023-04-16T15:35:14.553Z,15.67
2023-04-16T15:38:18.011Z,15.60
2023-04-16T15:41:21.938Z,15.47
2023-04-16T15:44:25.420Z,15.36
2023-04-16T15:47:30.193Z,15.31
2023-04-16T15:50:35.221Z,15.27
2023-04-16T15:53:39.081Z,14.97
2023-04-16T15:56:42.846Z,14.76
2023-04-16T15:59:59.575Z,14.67
2023-04-16T16:03:14.916Z,14.63
2023-04-16T16:06:21.072Z,14.86
2023-04-16T16:09:26.983Z,14.69
2023-04-16T16:12:31.357Z,14.84
2023-04-16T16:15:35.187Z,14.98
2023-04-16T16:18:39.553Z,14.96
2023-04-16T16:21:44.613Z,14.86
2023-04-16T16:24:52.053Z,14.61
2023-04-16T16:27:55.517Z,14.86
2023-04-16T16:31:01.265Z,14.29
2023-04-16T16:34:04.841Z,14.50
2023-04-16T16:37:10.291Z,14.01
2023-04-16T16:40:13.985Z,14.00
2023-04-16T16:43:17.732Z,14.03
2023-04-16T16:46:21.461Z,14.21
2023-04-16T16:49:28.314Z,14.04
2023-04-16T16:52:33.502Z,13.92
2023-04-16T16:55:37.342Z,14.03
2023-04-16T16:58:41.994Z,14.10
2023-04-16T17:02:06.447Z,14.06
2023-04-16T17:05:11.215Z,14.25
2023-04-16T17:08:16.447Z,14.19
2023-04-16T17:11:20.208Z,14.27
2023-04-16T17:14:24.408Z,14.26
2023-04-16T17:17:28.472Z,14.44
2023-04-16T17:20:32.968Z,14.23
2023-04-16T17:23:41.100Z,13.83
2023-04-16T17:26:45.220Z,14.02
2023-04-16T17:29:48.650Z,14.22
2023-04-16T17:32:52.434Z,14.10
2023-04-16T17:35:56.350Z,13.86
2023-04-16T17:39:01.527Z,14.29
2023-04-16T17:42:05.140Z,13.94
2023-04-16T17:45:12.767Z,14.28
2023-04-16T17:48:17.212Z,14.15
2023-04-16T17:51:21.268Z,14.07
2023-04-16T17:54:27.119Z,13.78
2023-04-16T17:57:31.520Z,13.64
2023-04-16T18:00:35.487Z,13.58
2023-04-16T18:03:42.120Z,13.09
2023-04-16T18:06:46.273Z,12.76
2023-04-16T18:09:52.643Z,12.87
2023-04-16T18:12:56.725Z,13.01
2023-04-16T18:16:01.009Z,12.91
2023-04-16T18:19:05.607Z,13.17
2023-04-16T18:22:09.736Z,13.24
2023-04-16T18:25:16.110Z,13.02
2023-04-16T18:28:20.091Z,13.11
2023-04-16T18:31:23.647Z,13.06
2023-04-16T18:34:29.802Z,13.30
2023-04-16T18:37:33.337Z,13.33
2023-04-16T18:40:38.913Z,13.31
2023-04-16T18:43:42.366Z,13.26
2023-04-16T18:46:46.469Z,13.44
2023-04-16T18:49:50.092Z,13.53
2023-04-16T18:52:54.161Z,13.49
2023-04-16T18:55:59.398Z,13.57
2023-04-16T18:59:03.814Z,13.75
2023-04-16T19:02:09.045Z,13.82
2023-04-16T19:05:13.146Z,13.88
2023-04-16T19:08:16.888Z,13.79
2023-04-16T19:11:22.809Z,13.66
2023-04-16T19:14:26.474Z,13.77
2023-04-16T19:17:30.560Z,13.57
2023-04-16T19:20:35.969Z,13.70
2023-04-16T19:23:39.878Z,13.45
2023-04-16T19:26:46.511Z,13.67
2023-04-16T19:29:50.387Z,13.55
2023-04-16T19:32:55.287Z,13.71
2023-04-16T19:36:00.408Z,13.70
2023-04-16T19:39:04.083Z,13.77
2023-04-16T19:42:09.487Z,13.69
2023-04-16T19:45:13.021Z,13.79
2023-04-16T19:48:17.005Z,13.80
2023-04-16T19:51:20.710Z,13.75
2023-04-16T19:54:24.750Z,13.91
2023-04-16T19:57:29.600Z,14.00
2023-04-16T20:00:33.757Z,13.97
2023-04-16T20:03:39.843Z,14.05
2023-04-16T20:06:43.641Z,14.14
2023-04-16T20:09:48.167Z,14.13
2023-04-16T20:12:57.213Z,14.16
2023-04-16T20:16:01.257Z,14.11
2023-04-16T20:19:06.541Z,13.96
2023-04-16T20:22:11.968Z,14.06
2023-04-16T20:25:19.349Z,14.11
2023-04-16T20:28:25.927Z,14.14
2023-04-16T20:31:30.185Z,14.01
2023-04-16T20:34:33.996Z,13.85
2023-04-16T20:37:39.807Z,14.02
2023-04-16T20:40:45.051Z,13.97
2023-04-16T20:43:52.764Z,14.01
2023-04-16T20:46:57.128Z,13.95
2023-04-16T20:50:01.843Z,13.91
2023-04-16T20:53:05.438Z,13.94
2023-04-16T20:56:10.019Z,13.92
2023-04-16T20:59:15.165Z,13.72
2023-04-16T21:02:21.261Z,13.63
2023-04-16T21:05:26.629Z,13.71
2023-04-16T21:08:31.610Z,13.87
2023-04-16T21:11:35.772Z,13.94
2023-04-16T21:14:41.124Z,13.92
2023-04-16T21:17:44.751Z,13.82
2023-04-16T21:20:48.740Z,14.02
2023-04-16T21:23:52.236Z,14.07
2023-04-16T21:26:58.225Z,14.11
2023-04-16T21:30:04.034Z,14.02
2023-04-16T21:33:08.172Z,13.95
2023-04-16T21:36:11.979Z,14.09
2023-04-16T21:39:17.619Z,14.04
2023-04-16T21:42:21.148Z,14.10
2023-04-16T21:45:26.380Z,14.05
2023-04-16T21:48:30.337Z,14.05
2023-04-16T21:51:34.257Z,13.96
2023-04-16T21:54:37.800Z,13.96
2023-04-16T21:57:42.001Z,13.68
2023-04-16T22:00:47.355Z,13.41
2023-04-16T22:03:52.232Z,13.32
2023-04-16T22:06:57.203Z,13.65
2023-04-16T22:10:05.401Z,13.81
2023-04-16T22:13:12.703Z,13.59
2023-04-16T22:16:23.128Z,13.73
2023-04-16T22:19:27.355Z,13.44
2023-04-16T22:22:31.364Z,13.56
2023-04-16T22:25:35.034Z,13.47
2023-04-16T22:28:38.781Z,13.54
2023-04-16T22:31:43.738Z,13.68
2023-04-16T22:34:47.696Z,13.57
2023-04-16T22:37:51.198Z,13.64
2023-04-16T22:40:55.036Z,13.78
2023-04-16T22:43:58.604Z,13.75
2023-04-16T22:47:03.868Z,13.62
2023-04-16T22:50:08.658Z,13.75
2023-04-16T22:53:13.913Z,13.79
2023-04-16T22:56:17.331Z,13.92
2023-04-16T22:59:21.068Z,13.78
2023-04-16T23:02:25.934Z,13.95
2023-04-16T23:05:29.963Z,13.80
2023-04-16T23:08:33.563Z,13.29
2023-04-16T23:11:37.358Z,13.31
2023-04-16T23:14:46.120Z,13.16
2023-04-16T23:17:51.421Z,13.23
2023-04-16T23:20:55.192Z,13.18
2023-04-16T23:23:59.137Z,13.24
2023-04-16T23:27:02.877Z,13.22
2023-04-16T23:30:08.319Z,13.09
2023-04-16T23:33:13.272Z,13.13
2023-04-16T23:36:17.304Z,13.20
2023-04-16T23:39:20.966Z,13.15
2023-04-16T23:42:24.980Z,13.25
2023-04-16T23:45:28.454Z,13.18
2023-04-16T23:48:33.651Z,12.71
2023-04-16T23:51:37.229Z,12.99
2023-04-16T23:54:41.115Z,12.86
2023-04-16T23:57:44.519Z,12.68
